createdAt,value
2017-11-27T00:01:55.829Z,81.56
2017-11-27T00:04:23.293Z,80.89
2017-11-27T00:06:50.750Z,81.11
2017-11-27T00:09:18.210Z,81.05
2017-11-27T00:11:45.698Z,79.99
2017-11-27T00:14:13.144Z,80.27
2017-11-27T00:16:40.610Z,81.12
2017-11-27T00:19:08.061Z,79.92
2017-11-27T00:21:35.553Z,80.26
2017-11-27T00:24:03.005Z,80.53
2017-11-27T00:26:30.483Z,80.70
2017-11-27T00:28:57.935Z,80.95
2017-11-27T00:31:25.417Z,80.86
2017-11-27T00:33:52.994Z,81.01
2017-11-27T00:36:20.472Z,81.12
2017-11-27T00:38:47.920Z,80.65
2017-11-27T00:41:15.396Z,80.81
2017-11-27T00:43:42.902Z,80.47
2017-11-27T00:46:10.346Z,80.60
2017-11-27T00:48:37.817Z,80.57
2017-11-27T00:51:05.278Z,80.18
2017-11-27T00:53:32.745Z,81.00
2017-11-27T00:56:00.188Z,81.09
2017-11-27T00:58:27.656Z,81.16
2017-11-27T01:00:55.111Z,81.22
2017-11-27T01:03:22.588Z,81.32
2017-11-27T01:05:50.181Z,81.28
2017-11-27T01:08:17.649Z,80.83
2017-11-27T01:10:45.097Z,81.02
2017-11-27T01:13:12.585Z,81.21
2017-11-27T01:15:40.041Z,81.18
2017-11-27T01:18:07.644Z,81.49
2017-11-27T01:20:35.136Z,81.28
2017-11-27T01:23:02.717Z,81.37
2017-11-27T01:25:30.211Z,81.15
2017-11-27T01:27:57.727Z,81.43
2017-11-27T01:30:25.189Z,81.03
2017-11-27T01:32:52.633Z,81.09
2017-11-27T01:35:20.111Z,81.00
2017-11-27T01:37:47.571Z,81.03
2017-11-27T01:40:15.037Z,81.24
2017-11-27T01:42:42.587Z,80.95
2017-11-27T01:45:10.056Z,80.74
2017-11-27T01:47:37.508Z,80.76
2017-11-27T01:50:04.977Z,80.66
2017-11-27T01:52:32.490Z,80.77
2017-11-27T01:54:59.979Z,80.73
2017-11-27T01:57:27.429Z,80.80
2017-11-27T01:59:54.905Z,81.37
2017-11-27T02:02:22.442Z,81.52
2017-11-27T02:04:49.886Z,81.51
2017-11-27T02:07:17.458Z,81.66
2017-11-27T02:09:44.903Z,81.74
2017-11-27T02:12:12.370Z,81.49
2017-11-27T02:14:39.812Z,81.50
2017-11-27T02:17:07.325Z,81.16
2017-11-27T02:19:34.835Z,80.85
2017-11-27T02:22:02.287Z,80.83
2017-11-27T02:24:29.848Z,81.11
2017-11-27T02:26:57.306Z,81.01
2017-11-27T02:29:24.769Z,81.05
2017-11-27T02:31:52.211Z,80.61
2017-11-27T02:34:19.788Z,80.72
2017-11-27T02:36:47.232Z,80.82
2017-11-27T02:39:14.699Z,80.82
2017-11-27T02:41:42.158Z,80.68
2017-11-27T02:44:09.644Z,80.42
2017-11-27T02:46:37.088Z,80.10
2017-11-27T02:49:04.612Z,79.77
2017-11-27T02:51:32.080Z,80.30
2017-11-27T02:53:59.576Z,79.61
2017-11-27T02:56:27.024Z,79.64
2017-11-27T02:58:54.469Z,80.08
2017-11-27T03:01:21.997Z,79.45
2017-11-27T03:03:49.510Z,80.19
2017-11-27T03:06:17.043Z,80.10
2017-11-27T03:08:44.494Z,79.88
2017-11-27T03:11:11.957Z,80.07
2017-11-27T03:13:39.411Z,80.33
2017-11-27T03:16:06.888Z,80.51
2017-11-27T03:18:34.352Z,80.56
2017-11-27T03:21:01.886Z,80.42
2017-11-27T03:23:29.341Z,80.91
2017-11-27T03:25:56.804Z,80.67
2017-11-27T03:28:24.248Z,80.48
2017-11-27T03:30:51.717Z,80.25
2017-11-27T03:33:19.175Z,80.19
2017-11-27T03:35:46.650Z,80.67
2017-11-27T03:38:14.114Z,80.67
2017-11-27T03:40:41.635Z,80.51
2017-11-27T03:43:09.101Z,80.65
2017-11-27T03:45:36.553Z,81.06
2017-11-27T03:48:04.012Z,80.97
2017-11-27T03:50:31.544Z,81.39
2017-11-27T03:52:59.108Z,80.76
2017-11-27T03:55:26.548Z,80.65
2017-11-27T03:57:54.013Z,80.37
2017-11-27T04:00:21.456Z,80.16
2017-11-27T04:02:48.927Z,80.02
2017-11-27T04:05:16.412Z,80.45
2017-11-27T04:07:43.945Z,80.78
2017-11-27T04:10:11.503Z,81.11
2017-11-27T04:12:38.972Z,81.24
2017-11-27T04:15:06.479Z,81.31
2017-11-27T04:17:33.978Z,81.27
2017-11-27T04:20:01.449Z,81.24
2017-11-27T04:22:28.987Z,81.10
2017-11-27T04:24:56.518Z,81.42
2017-11-27T04:27:24.292Z,81.66
2017-11-27T04:29:51.876Z,81.78
2017-11-27T04:32:19.332Z,81.82
2017-11-27T04:34:46.804Z,81.87
2017-11-27T04:37:14.250Z,81.87
2017-11-27T04:39:41.808Z,82.16
2017-11-27T04:42:09.279Z,81.96
2017-11-27T04:44:36.729Z,80.95
2017-11-27T04:47:04.198Z,79.99
2017-11-27T04:49:31.688Z,80.96
2017-11-27T04:51:59.162Z,79.78
2017-11-27T04:54:26.667Z,79.69
2017-11-27T04:56:54.208Z,80.12
2017-11-27T04:59:21.678Z,80.15
2017-11-27T05:01:49.161Z,80.20
2017-11-27T05:04:16.622Z,80.04
2017-11-27T05:06:44.069Z,80.05
2017-11-27T05:09:11.540Z,80.46
2017-11-27T05:11:38.998Z,80.30
2017-11-27T05:14:06.479Z,80.01
2017-11-27T05:16:33.933Z,79.95
2017-11-27T05:19:01.401Z,79.61
2017-11-27T05:21:28.858Z,79.33
2017-11-27T05:23:56.320Z,79.65
2017-11-27T05:26:23.778Z,79.88
2017-11-27T05:28:51.261Z,79.47
2017-11-27T05:31:18.742Z,79.54
2017-11-27T05:33:46.197Z,79.45
2017-11-27T05:36:13.675Z,79.49
2017-11-27T05:38:41.157Z,79.37
2017-11-27T05:41:08.747Z,79.54
2017-11-27T05:43:36.191Z,79.35
2017-11-27T05:46:03.694Z,79.53
2017-11-27T05:48:31.136Z,79.47
2017-11-27T05:50:58.601Z,79.52
2017-11-27T05:53:26.058Z,80.24
2017-11-27T05:55:53.537Z,78.71
2017-11-27T05:58:20.994Z,79.24
2017-11-27T06:00:48.485Z,79.03
2017-11-27T06:03:15.946Z,79.84
2017-11-27T06:05:43.440Z,79.69
2017-11-27T06:08:10.926Z,79.73
2017-11-27T06:10:38.415Z,80.25
2017-11-27T06:13:05.913Z,79.45
2017-11-27T06:15:33.577Z,79.70
2017-11-27T06:18:01.060Z,80.12
2017-11-27T06:20:28.525Z,80.18
2017-11-27T06:22:55.993Z,80.24
2017-11-27T06:25:23.449Z,80.74
2017-11-27T06:27:50.927Z,81.03
2017-11-27T06:30:18.465Z,80.47
2017-11-27T06:32:45.928Z,80.62
2017-11-27T06:35:13.385Z,80.89
2017-11-27T06:37:40.852Z,81.57
2017-11-27T06:40:08.311Z,80.96
2017-11-27T06:42:35.767Z,81.39
2017-11-27T06:45:03.238Z,81.29
2017-11-27T06:47:30.693Z,81.29
2017-11-27T06:49:58.172Z,80.94
2017-11-27T06:52:25.650Z,81.23
2017-11-27T06:54:53.140Z,81.87
2017-11-27T06:57:20.610Z,81.43
2017-11-27T06:59:48.138Z,81.65
2017-11-27T07:02:15.599Z,81.55
2017-11-27T07:04:43.170Z,81.63
2017-11-27T07:07:10.639Z,82.10
2017-11-27T07:09:38.126Z,81.88
2017-11-27T07:12:05.586Z,81.98
2017-11-27T07:14:33.078Z,81.81
2017-11-27T07:17:00.549Z,81.98
2017-11-27T07:19:27.988Z,81.94
2017-11-27T07:21:55.572Z,82.70
2017-11-27T07:24:23.086Z,82.57
2017-11-27T07:26:50.553Z,82.67
2017-11-27T07:29:18.000Z,83.02
2017-11-27T07:31:45.519Z,82.85
2017-11-27T07:34:13.054Z,82.24
2017-11-27T07:36:40.619Z,81.92
2017-11-27T07:39:13.672Z,81.93
2017-11-27T07:41:41.146Z,81.80
2017-11-27T07:44:08.590Z,81.90
2017-11-27T07:46:36.081Z,81.72
2017-11-27T07:49:03.554Z,81.78
2017-11-27T07:51:31.097Z,81.78
2017-11-27T07:53:58.580Z,81.34
2017-11-27T07:56:26.100Z,81.08
2017-11-27T07:58:53.581Z,81.49
2017-11-27T08:01:21.050Z,82.12
2017-11-27T08:03:48.532Z,81.49
2017-11-27T08:06:15.984Z,81.58
2017-11-27T08:08:43.460Z,82.01
2017-11-27T08:11:10.901Z,81.92
2017-11-27T08:13:38.397Z,82.02
2017-11-27T08:16:05.864Z,82.21
2017-11-27T08:18:33.349Z,81.99
2017-11-27T08:21:00.879Z,82.07
2017-11-27T08:23:28.436Z,82.41
2017-11-27T08:25:55.937Z,82.24
2017-11-27T08:28:23.393Z,82.18
2017-11-27T08:30:50.886Z,82.56
2017-11-27T08:33:18.336Z,82.65
2017-11-27T08:35:45.805Z,82.84
2017-11-27T08:38:13.263Z,83.04
2017-11-27T08:40:40.826Z,82.99
2017-11-27T08:43:08.283Z,82.79
2017-11-27T08:45:35.862Z,83.25
2017-11-27T08:48:03.344Z,83.69
2017-11-27T08:50:30.867Z,82.87
2017-11-27T08:52:58.415Z,82.88
2017-11-27T08:55:25.872Z,83.08
2017-11-27T08:57:53.335Z,82.75
2017-11-27T09:00:20.792Z,82.90
2017-11-27T09:02:48.279Z,83.06
2017-11-27T09:05:15.811Z,82.82
2017-11-27T09:07:43.298Z,82.89
2017-11-27T09:10:10.764Z,83.89
2017-11-27T09:12:38.244Z,83.68
2017-11-27T09:15:05.751Z,82.94
2017-11-27T09:17:33.200Z,82.97
2017-11-27T09:20:00.673Z,83.17
2017-11-27T09:22:28.116Z,83.58
2017-11-27T09:24:55.591Z,83.41
2017-11-27T09:27:23.115Z,83.64
2017-11-27T09:29:50.577Z,83.25
2017-11-27T09:32:18.040Z,83.39
2017-11-27T09:34:45.522Z,83.69
2017-11-27T09:37:12.965Z,83.34
2017-11-27T09:39:40.500Z,84.12
2017-11-27T09:42:07.956Z,84.79
2017-11-27T09:44:35.439Z,83.89
2017-11-27T09:47:02.892Z,84.17
2017-11-27T09:49:30.380Z,83.97
2017-11-27T09:51:57.850Z,84.57
2017-11-27T09:54:25.306Z,84.89
2017-11-27T09:56:52.773Z,84.45
2017-11-27T09:59:20.242Z,84.51
2017-11-27T10:01:47.722Z,84.86
2017-11-27T10:04:15.175Z,85.15
2017-11-27T10:06:42.653Z,85.02
2017-11-27T10:09:10.180Z,84.54
2017-11-27T10:11:37.740Z,85.20
2017-11-27T10:14:05.204Z,85.50
2017-11-27T10:16:32.690Z,85.50
2017-11-27T10:19:00.136Z,85.07
2017-11-27T10:21:27.682Z,85.37
2017-11-27T10:23:55.222Z,85.59
2017-11-27T10:26:22.687Z,85.48
2017-11-27T10:28:50.152Z,85.10
2017-11-27T10:31:17.592Z,85.47
2017-11-27T10:33:45.055Z,85.20
2017-11-27T10:36:12.535Z,85.21
2017-11-27T10:38:40.002Z,84.73
2017-11-27T10:41:07.474Z,85.54
2017-11-27T10:43:34.948Z,84.46
2017-11-27T10:46:02.397Z,84.87
2017-11-27T10:48:29.871Z,84.84
2017-11-27T10:50:57.320Z,84.11
2017-11-27T10:53:24.766Z,84.50
2017-11-27T10:55:52.246Z,84.26
2017-11-27T10:58:19.715Z,83.44
2017-11-27T11:00:52.957Z,83.91
2017-11-27T11:03:20.468Z,83.90
2017-11-27T11:05:47.946Z,83.86
2017-11-27T11:08:15.484Z,84.32
2017-11-27T11:10:43.043Z,82.91
2017-11-27T11:13:10.526Z,83.25
2017-11-27T11:15:38.024Z,82.84
2017-11-27T11:18:05.515Z,82.76
2017-11-27T11:20:32.980Z,82.27
2017-11-27T11:23:00.461Z,82.10
2017-11-27T11:25:27.940Z,81.76
2017-11-27T11:27:55.444Z,82.12
2017-11-27T11:30:22.899Z,82.13
2017-11-27T11:32:50.369Z,81.37
2017-11-27T11:35:17.825Z,81.77
2017-11-27T11:37:45.381Z,81.50
2017-11-27T11:40:12.837Z,82.29
2017-11-27T11:42:40.307Z,82.38
2017-11-27T11:45:07.753Z,82.11
2017-11-27T11:47:35.302Z,81.81
2017-11-27T11:50:02.748Z,82.05
2017-11-27T11:52:30.217Z,82.32
2017-11-27T11:54:57.657Z,82.11
2017-11-27T11:57:25.126Z,81.74
2017-11-27T11:59:52.568Z,82.53
2017-11-27T12:02:20.178Z,82.53
2017-11-27T12:04:47.618Z,81.93
2017-11-27T12:07:15.080Z,81.67
2017-11-27T12:09:42.549Z,82.30
2017-11-27T12:12:10.065Z,82.37
2017-11-27T12:14:37.564Z,82.16
2017-11-27T12:17:05.039Z,82.50
2017-11-27T12:19:32.504Z,82.98
2017-11-27T12:21:59.951Z,82.75
2017-11-27T12:24:27.435Z,82.69
2017-11-27T12:26:54.893Z,83.10
2017-11-27T12:29:22.380Z,82.68
2017-11-27T12:31:49.824Z,82.94
2017-11-27T12:34:17.288Z,83.18
2017-11-27T12:36:44.740Z,83.28
2017-11-27T12:39:12.209Z,82.69
2017-11-27T12:41:39.683Z,82.64
2017-11-27T12:44:07.132Z,82.41
2017-11-27T12:46:34.600Z,82.85
2017-11-27T12:49:02.053Z,83.26
2017-11-27T12:51:29.540Z,83.36
2017-11-27T12:53:57.021Z,83.34
2017-11-27T12:56:24.487Z,81.77
2017-11-27T12:58:51.937Z,82.57
2017-11-27T13:01:19.501Z,82.31
2017-11-27T13:03:46.962Z,82.48
2017-11-27T13:06:14.459Z,82.41
2017-11-27T13:08:41.914Z,82.31
2017-11-27T13:11:09.395Z,83.03
2017-11-27T13:13:36.840Z,82.97
2017-11-27T13:16:04.304Z,82.94
2017-11-27T13:18:31.790Z,82.92
2017-11-27T13:20:59.265Z,82.82
2017-11-27T13:23:26.734Z,82.49
2017-11-27T13:25:54.194Z,83.00
2017-11-27T13:28:21.738Z,82.84
2017-11-27T13:30:49.198Z,83.06
2017-11-27T13:33:16.664Z,83.40
2017-11-27T13:35:44.201Z,82.61
2017-11-27T13:38:11.713Z,83.21
2017-11-27T13:40:39.173Z,83.36
2017-11-27T13:43:06.657Z,83.74
2017-11-27T13:45:34.829Z,83.32
2017-11-27T13:48:02.292Z,84.22
2017-11-27T13:50:29.751Z,83.60
2017-11-27T13:52:57.228Z,83.32
2017-11-27T13:55:24.686Z,83.38
2017-11-27T13:57:52.461Z,82.78
2017-11-27T14:00:19.925Z,82.77
2017-11-27T14:02:47.378Z,83.87
2017-11-27T14:05:14.865Z,83.35
2017-11-27T14:07:42.331Z,83.06
2017-11-27T14:10:09.814Z,83.38
2017-11-27T14:12:37.284Z,84.08
2017-11-27T14:15:04.740Z,83.51
2017-11-27T14:17:32.184Z,83.06
2017-11-27T14:19:59.711Z,83.74
2017-11-27T14:22:27.172Z,83.92
2017-11-27T14:24:54.649Z,83.58
2017-11-27T14:27:22.158Z,84.51
2017-11-27T14:29:49.643Z,83.81
2017-11-27T14:32:17.091Z,84.62
2017-11-27T14:34:44.571Z,83.84
2017-11-27T14:37:12.046Z,83.63
2017-11-27T14:39:39.661Z,83.92
2017-11-27T14:42:07.179Z,83.39
2017-11-27T14:44:34.640Z,83.83
2017-11-27T14:47:02.115Z,83.71
2017-11-27T14:49:29.578Z,83.92
2017-11-27T14:51:57.060Z,84.17
2017-11-27T14:54:24.739Z,84.85
2017-11-27T14:56:52.321Z,84.88
2017-11-27T14:59:19.884Z,84.89
2017-11-27T15:01:47.358Z,84.47
2017-11-27T15:04:14.824Z,84.00
2017-11-27T15:06:42.295Z,84.50
2017-11-27T15:09:09.752Z,84.89
2017-11-27T15:11:37.374Z,84.50
2017-11-27T15:14:04.921Z,84.91
2017-11-27T15:16:32.409Z,85.13
2017-11-27T15:18:59.932Z,85.01
2017-11-27T15:21:27.412Z,85.26
2017-11-27T15:23:54.912Z,84.94
2017-11-27T15:26:22.378Z,85.66
2017-11-27T15:28:49.852Z,84.93
2017-11-27T15:31:17.344Z,86.23
2017-11-27T15:33:44.816Z,86.36
2017-11-27T15:36:12.279Z,85.38
2017-11-27T15:38:39.758Z,85.76
2017-11-27T15:41:07.272Z,85.42
2017-11-27T15:43:34.757Z,85.91
2017-11-27T15:46:02.220Z,86.13
2017-11-27T15:48:29.700Z,85.97
2017-11-27T15:50:57.161Z,86.07
2017-11-27T15:53:24.633Z,86.42
2017-11-27T15:55:52.152Z,86.45
2017-11-27T15:58:19.633Z,86.96
2017-11-27T16:00:47.086Z,86.67
2017-11-27T16:03:14.543Z,87.06
2017-11-27T16:05:42.029Z,87.20
2017-11-27T16:08:09.516Z,86.84
2017-11-27T16:10:37.004Z,87.16
2017-11-27T16:13:04.458Z,86.90
2017-11-27T16:15:31.924Z,87.64
2017-11-27T16:17:59.375Z,87.69
2017-11-27T16:20:26.846Z,87.93
2017-11-27T16:22:54.311Z,87.08
2017-11-27T16:25:21.876Z,87.47
2017-11-27T16:27:49.332Z,87.30
2017-11-27T16:30:16.838Z,87.64
2017-11-27T16:32:44.310Z,88.00
2017-11-27T16:35:11.774Z,87.91
2017-11-27T16:37:39.245Z,87.46
2017-11-27T16:40:06.706Z,87.05
2017-11-27T16:42:34.225Z,87.83
2017-11-27T16:45:01.745Z,87.18
2017-11-27T16:47:29.212Z,87.79
2017-11-27T16:49:56.660Z,87.23
2017-11-27T16:52:24.136Z,87.38
2017-11-27T16:54:51.634Z,87.69
2017-11-27T16:57:19.163Z,87.40
2017-11-27T16:59:46.652Z,87.38
2017-11-27T17:02:14.105Z,87.20
2017-11-27T17:04:41.592Z,86.91
2017-11-27T17:07:09.063Z,87.07
2017-11-27T17:09:36.547Z,86.93
2017-11-27T17:12:04.086Z,87.10
2017-11-27T17:14:32.414Z,86.46
2017-11-27T17:16:59.853Z,87.00
2017-11-27T17:19:27.326Z,86.86
2017-11-27T17:21:54.770Z,87.15
2017-11-27T17:24:22.246Z,86.70
2017-11-27T17:26:49.738Z,85.91
2017-11-27T17:29:17.221Z,86.77
2017-11-27T17:31:44.695Z,86.58
2017-11-27T17:34:12.178Z,86.24
2017-11-27T17:36:39.624Z,86.17
2017-11-27T17:39:07.065Z,86.02
2017-11-27T17:41:34.555Z,85.87
2017-11-27T17:44:02.019Z,85.81
2017-11-27T17:46:29.521Z,86.20
2017-11-27T17:48:56.960Z,85.65
2017-11-27T17:51:25.077Z,85.91
2017-11-27T17:53:52.540Z,86.45
2017-11-27T17:56:20.019Z,85.38
2017-11-27T17:58:47.485Z,85.50
2017-11-27T18:01:14.990Z,85.75
2017-11-27T18:03:42.457Z,85.60
2017-11-27T18:06:09.940Z,85.28
2017-11-27T18:08:37.386Z,85.48
2017-11-27T18:11:04.884Z,85.39
2017-11-27T18:13:32.338Z,85.94
2017-11-27T18:15:59.804Z,85.56
2017-11-27T18:18:27.324Z,85.45
2017-11-27T18:20:54.794Z,85.50
2017-11-27T18:23:22.273Z,86.19
2017-11-27T18:25:49.750Z,86.15
2017-11-27T18:28:17.221Z,85.93
2017-11-27T18:30:44.680Z,85.87
2017-11-27T18:33:12.224Z,86.21
2017-11-27T18:35:39.705Z,85.99
2017-11-27T18:38:07.178Z,85.97
2017-11-27T18:40:34.667Z,85.66
2017-11-27T18:43:02.140Z,86.29
2017-11-27T18:45:29.588Z,85.76
2017-11-27T18:47:57.064Z,86.17
2017-11-27T18:50:24.519Z,85.59
2017-11-27T18:52:51.966Z,86.05
2017-11-27T18:55:19.445Z,85.54
2017-11-27T18:57:46.908Z,85.69
2017-11-27T19:00:14.391Z,85.73
2017-11-27T19:02:41.859Z,85.01
2017-11-27T19:05:09.324Z,85.53
2017-11-27T19:07:36.774Z,85.54
2017-11-27T19:10:04.257Z,85.05
2017-11-27T19:12:31.710Z,85.21
2017-11-27T19:14:59.217Z,84.82
2017-11-27T19:17:26.681Z,85.16
2017-11-27T19:19:54.145Z,85.43
2017-11-27T19:22:21.625Z,85.17
2017-11-27T19:24:49.083Z,85.06
2017-11-27T19:27:16.570Z,85.13
2017-11-27T19:29:44.013Z,85.71
2017-11-27T19:32:11.482Z,85.57
2017-11-27T19:34:38.942Z,85.39
2017-11-27T19:37:06.417Z,84.64
2017-11-27T19:39:33.871Z,85.13
2017-11-27T19:42:01.384Z,85.10
2017-11-27T19:44:28.832Z,85.62
2017-11-27T19:46:56.272Z,85.43
2017-11-27T19:49:23.737Z,85.99
2017-11-27T19:51:51.199Z,85.72
2017-11-27T19:54:18.678Z,85.99
2017-11-27T19:56:46.128Z,85.97
2017-11-27T19:59:13.641Z,85.58
2017-11-27T20:01:41.124Z,86.31
2017-11-27T20:04:08.610Z,85.98
2017-11-27T20:06:36.067Z,85.67
2017-11-27T20:09:03.536Z,86.56
2017-11-27T20:11:30.994Z,86.08
2017-11-27T20:13:58.480Z,85.81
2017-11-27T20:16:25.946Z,86.83
2017-11-27T20:18:53.408Z,86.35
2017-11-27T20:21:20.887Z,86.50
2017-11-27T20:23:48.383Z,86.51
2017-11-27T20:26:15.849Z,86.10
2017-11-27T20:28:43.297Z,86.29
2017-11-27T20:31:10.764Z,85.82
2017-11-27T20:33:38.214Z,85.87
2017-11-27T20:36:05.684Z,86.06
2017-11-27T20:38:33.161Z,85.91
2017-11-27T20:41:00.624Z,85.97
2017-11-27T20:43:28.248Z,85.13
2017-11-27T20:45:55.718Z,85.42
2017-11-27T20:48:23.183Z,85.08
2017-11-27T20:50:50.654Z,86.03
2017-11-27T20:53:18.097Z,84.80
2017-11-27T20:55:45.579Z,85.43
2017-11-27T20:58:13.021Z,85.75
2017-11-27T21:00:40.513Z,85.69
2017-11-27T21:03:07.968Z,85.47
2017-11-27T21:05:36.274Z,84.80
2017-11-27T21:08:03.741Z,84.99
2017-11-27T21:10:31.187Z,85.04
2017-11-27T21:12:58.672Z,85.09
2017-11-27T21:15:26.116Z,85.09
2017-11-27T21:17:53.594Z,85.90
2017-11-27T21:20:21.060Z,85.14
2017-11-27T21:22:48.541Z,85.14
2017-11-27T21:25:16.073Z,85.08
2017-11-27T21:27:43.641Z,85.75
2017-11-27T21:30:11.108Z,85.05
2017-11-27T21:32:38.579Z,84.62
2017-11-27T21:35:06.060Z,84.72
2017-11-27T21:37:33.532Z,85.18
2017-11-27T21:40:00.997Z,85.12
2017-11-27T21:42:28.448Z,84.53
2017-11-27T21:44:55.945Z,84.44
2017-11-27T21:47:23.399Z,84.08
2017-11-27T21:49:50.869Z,83.84
2017-11-27T21:52:18.313Z,84.73
2017-11-27T21:54:45.771Z,84.83
2017-11-27T21:57:13.213Z,84.67
2017-11-27T21:59:40.697Z,84.03
2017-11-27T22:02:08.179Z,84.10
2017-11-27T22:04:35.644Z,84.20
2017-11-27T22:07:03.117Z,84.02
2017-11-27T22:09:30.603Z,84.62
2017-11-27T22:11:58.060Z,84.15
2017-11-27T22:14:25.557Z,84.08
2017-11-27T22:16:53.008Z,84.06
2017-11-27T22:19:20.447Z,85.07
2017-11-27T22:21:47.904Z,85.00
2017-11-27T22:24:15.425Z,84.48
2017-11-27T22:26:42.894Z,84.48
2017-11-27T22:29:10.344Z,85.15
2017-11-27T22:31:37.816Z,84.76
2017-11-27T22:34:05.256Z,84.48
2017-11-27T22:36:32.732Z,84.79
2017-11-27T22:39:00.197Z,84.64
2017-11-27T22:41:27.666Z,84.77
2017-11-27T22:43:55.123Z,85.05
2017-11-27T22:46:22.603Z,85.18
2017-11-27T22:48:50.085Z,84.97
2017-11-27T22:51:17.550Z,85.00
2017-11-27T22:53:44.997Z,84.89
2017-11-27T22:56:12.475Z,84.99
2017-11-27T22:58:39.952Z,85.55
2017-11-27T23:01:07.477Z,85.05
2017-11-27T23:03:34.943Z,85.59
2017-11-27T23:06:02.448Z,85.50
2017-11-27T23:08:29.947Z,84.93
2017-11-27T23:10:57.464Z,84.65
2017-11-27T23:13:24.929Z,84.79
2017-11-27T23:15:52.370Z,84.61
2017-11-27T23:18:19.834Z,85.02
2017-11-27T23:20:47.319Z,84.57
2017-11-27T23:23:14.847Z,84.89
2017-11-27T23:25:42.306Z,85.00
2017-11-27T23:28:09.771Z,84.79
2017-11-27T23:30:37.298Z,84.76
2017-11-27T23:33:04.795Z,84.71
2017-11-27T23:35:32.271Z,85.30
2017-11-27T23:37:59.730Z,85.03
2017-11-27T23:40:27.214Z,84.57
2017-11-27T23:42:54.667Z,85.04
2017-11-27T23:45:22.145Z,84.69
2017-11-27T23:47:49.671Z,85.14
2017-11-27T23:50:17.152Z,84.87
2017-11-27T23:52:44.614Z,84.37
2017-11-27T23:55:12.094Z,84.00
2017-11-27T23:57:39.546Z,84.54
